Erie, PA

12:30 PM EST on November 26, 2014 (GMT -0500)
Chautauqua County-Jamestown | Change Station
CLOSE
Current Station
Airport
Location: Jamestown,
Elevation: 1722 ft
Nearby Weather Stations

Elev 1722 ft 42.15 °N, 79.26 °W | Updated 15 minutes ago

Overcast
Overcast
30 °F
Feels Like 24 °F
N
6
Wind Variable Wind from East

Today
High -- | Low -- °F
--% Chance of Precip.
Yesterday
High -- | Low -- °F
Precip. -- in
7:23 AM 4:51 PM
Waxing Crescent, 21% visible
Pressure 30.05 in
Visibility 1.5 miles
Clouds Overcast 1800 ft
Windchill 24 °F
Dew Point 25 °F
Humidity 80%
Rainfall 0.00 in
Snow Depth Not available.
UV 1 out of 12
Pollen .10 out of 12
Air Quality Not available.
Flu Activity Not available.
METAR KJHW 261715Z 10005KT 1 1/2SM OVC018 M01/M04 A3005 RMK AO1

More Conditions Fewer Conditions

Pressure 30.05 in
Visibility 1.5 miles
Clouds Overcast 1800 ft
Windchill 24 °F
Dew Point 25 °F
Humidity 80%
Rainfall 0.00 in
Snow Depth Not available.
UV 1 out of 12
Pollen .10 out of 12
Air Quality Not available.
Flu Activity Not available.
METAR KJHW 261715Z 10005KT 1 1/2SM OVC018 M01/M04 A3005 RMK AO1

More Conditions Fewer Conditions

10-Day Weather Forecast

Almanac

Astronomy

Nov. 26, 2014 Rise Set
Actual Time
Civil Twilight
Nautical Twilight
Astronomical Twilight
Moon
Length of Visible Light
Length of Day
Tomorrow will be .
, % of the Moon is Illuminated

Today's Extremes

State Highs State Lows

Community

WunderPhotos

Upload Photos

1,773,804 photos uploaded!

WunderBlogs® & News

Nearby

Air Quality

  Air Quality AQ Index Pollutant
Not available.

Snow Depth

Station Depth Elevation

Earthquake Activity

City Distance Mag. Time & Date
Minimum magnitude displayed is 2.5.

Coastal Water Temperatures

Place Temperature

Nearby Weather Stations